sensor_id;sensor_type;location;lat;lon;timestamp;temperature;humidity
20091;DHT22;10205;49.678;6.560;2024-01-25T00:02:03;13.10;74.70
20091;DHT22;10205;49.678;6.560;2024-01-25T00:04:30;13.00;74.60
20091;DHT22;10205;49.678;6.560;2024-01-25T00:06:59;13.00;74.60
20091;DHT22;10205;49.678;6.560;2024-01-25T00:09:26;13.00;74.50
20091;DHT22;10205;49.678;6.560;2024-01-25T00:11:53;13.00;74.50
20091;DHT22;10205;49.678;6.560;2024-01-25T00:14:20;13.00;74.40
20091;DHT22;10205;49.678;6.560;2024-01-25T00:16:47;13.00;74.50
20091;DHT22;10205;49.678;6.560;2024-01-25T00:19:14;13.00;74.60
20091;DHT22;10205;49.678;6.560;2024-01-25T00:21:42;13.00;74.60
20091;DHT22;10205;49.678;6.560;2024-01-25T00:24:12;13.00;74.60
20091;DHT22;10205;49.678;6.560;2024-01-25T00:26:39;13.00;74.60
20091;DHT22;10205;49.678;6.560;2024-01-25T00:29:07;13.00;74.60
20091;DHT22;10205;49.678;6.560;2024-01-25T00:31:34;13.00;74.60
20091;DHT22;10205;49.678;6.560;2024-01-25T00:34:02;13.00;75.50
20091;DHT22;10205;49.678;6.560;2024-01-25T00:36:30;13.00;74.60
20091;DHT22;10205;49.678;6.560;2024-01-25T00:38:58;12.90;74.50
20091;DHT22;10205;49.678;6.560;2024-01-25T00:41:27;12.90;74.50
20091;DHT22;10205;49.678;6.560;2024-01-25T00:43:58;12.90;74.50
20091;DHT22;10205;49.678;6.560;2024-01-25T00:46:26;12.90;74.40
20091;DHT22;10205;49.678;6.560;2024-01-25T00:48:54;12.90;74.20
20091;DHT22;10205;49.678;6.560;2024-01-25T00:51:22;12.90;74.20
20091;DHT22;10205;49.678;6.560;2024-01-25T00:53:50;12.90;74.40
20091;DHT22;10205;49.678;6.560;2024-01-25T00:56:18;12.90;74.30
20091;DHT22;10205;49.678;6.560;2024-01-25T00:58:48;12.90;74.30
20091;DHT22;10205;49.678;6.560;2024-01-25T01:01:15;12.90;74.30
20091;DHT22;10205;49.678;6.560;2024-01-25T01:03:44;12.90;74.40
20091;DHT22;10205;49.678;6.560;2024-01-25T01:06:18;12.90;74.40
20091;DHT22;10205;49.678;6.560;2024-01-25T01:08:46;12.90;74.40
20091;DHT22;10205;49.678;6.560;2024-01-25T01:11:14;12.90;74.40
20091;DHT22;10205;49.678;6.560;2024-01-25T01:13:41;12.80;74.40
20091;DHT22;10205;49.678;6.560;2024-01-25T01:16:10;12.80;74.50
20091;DHT22;10205;49.678;6.560;2024-01-25T01:18:37;12.80;74.60
20091;DHT22;10205;49.678;6.560;2024-01-25T01:21:04;12.80;74.80
20091;DHT22;10205;49.678;6.560;2024-01-25T01:23:31;12.80;74.80
20091;DHT22;10205;49.678;6.560;2024-01-25T01:25:58;12.80;74.90
20091;DHT22;10205;49.678;6.560;2024-01-25T01:28:25;12.80;74.80
20091;DHT22;10205;49.678;6.560;2024-01-25T01:30:53;12.80;74.80
20091;DHT22;10205;49.678;6.560;2024-01-25T01:33:21;12.80;74.90
20091;DHT22;10205;49.678;6.560;2024-01-25T01:35:48;12.80;74.90
20091;DHT22;10205;49.678;6.560;2024-01-25T01:38:15;12.80;74.90
20091;DHT22;10205;49.678;6.560;2024-01-25T01:40:44;12.80;74.90
20091;DHT22;10205;49.678;6.560;2024-01-25T01:43:18;12.80;74.90
20091;DHT22;10205;49.678;6.560;2024-01-25T01:45:46;12.80;75.00
20091;DHT22;10205;49.678;6.560;2024-01-25T01:48:13;12.70;74.90
20091;DHT22;10205;49.678;6.560;2024-01-25T01:50:43;12.70;74.90
20091;DHT22;10205;49.678;6.560;2024-01-25T01:53:11;12.70;74.90
20091;DHT22;10205;49.678;6.560;2024-01-25T01:55:40;12.70;74.90
20091;DHT22;10205;49.678;6.560;2024-01-25T01:58:07;12.70;74.90
20091;DHT22;10205;49.678;6.560;2024-01-25T02:00:37;12.70;74.90
20091;DHT22;10205;49.678;6.560;2024-01-25T02:03:06;12.70;74.90
20091;DHT22;10205;49.678;6.560;2024-01-25T02:05:33;12.70;74.90
20091;DHT22;10205;49.678;6.560;2024-01-25T02:08:02;12.70;74.90
20091;DHT22;10205;49.678;6.560;2024-01-25T02:10:31;12.70;74.90
20091;DHT22;10205;49.678;6.560;2024-01-25T02:12:58;12.60;74.80
20091;DHT22;10205;49.678;6.560;2024-01-25T02:15:25;12.60;74.90
20091;DHT22;10205;49.678;6.560;2024-01-25T02:17:52;12.60;74.80
20091;DHT22;10205;49.678;6.560;2024-01-25T02:20:19;12.60;74.90
20091;DHT22;10205;49.678;6.560;2024-01-25T02:22:49;12.60;74.90
20091;DHT22;10205;49.678;6.560;2024-01-25T02:25:16;12.50;74.80
20091;DHT22;10205;49.678;6.560;2024-01-25T02:27:43;12.50;74.80
20091;DHT22;10205;49.678;6.560;2024-01-25T02:30:10;12.50;74.80
20091;DHT22;10205;49.678;6.560;2024-01-25T02:32:38;12.50;74.90
20091;DHT22;10205;49.678;6.560;2024-01-25T02:35:05;12.50;74.90
20091;DHT22;10205;49.678;6.560;2024-01-25T02:37:33;12.50;75.00
20091;DHT22;10205;49.678;6.560;2024-01-25T02:40:01;12.40;74.90
20091;DHT22;10205;49.678;6.560;2024-01-25T02:42:29;12.40;75.00
20091;DHT22;10205;49.678;6.560;2024-01-25T02:44:56;12.40;74.90
20091;DHT22;10205;49.678;6.560;2024-01-25T02:47:23;12.40;75.00
20091;DHT22;10205;49.678;6.560;2024-01-25T02:49:50;12.40;75.00
20091;DHT22;10205;49.678;6.560;2024-01-25T02:52:17;12.40;75.00
20091;DHT22;10205;49.678;6.560;2024-01-25T02:54:44;12.30;75.00
20091;DHT22;10205;49.678;6.560;2024-01-25T02:57:12;12.30;75.00
20091;DHT22;10205;49.678;6.560;2024-01-25T02:59:40;12.30;75.00
20091;DHT22;10205;49.678;6.560;2024-01-25T03:02:07;12.20;75.00
20091;DHT22;10205;49.678;6.560;2024-01-25T03:04:34;12.20;75.00
20091;DHT22;10205;49.678;6.560;2024-01-25T03:07:01;12.20;75.10
20091;DHT22;10205;49.678;6.560;2024-01-25T03:09:28;12.20;75.10
20091;DHT22;10205;49.678;6.560;2024-01-25T03:11:55;12.20;75.10
20091;DHT22;10205;49.678;6.560;2024-01-25T03:14:22;12.20;75.10
20091;DHT22;10205;49.678;6.560;2024-01-25T03:16:49;12.10;75.10
20091;DHT22;10205;49.678;6.560;2024-01-25T03:19:17;12.10;75.10
20091;DHT22;10205;49.678;6.560;2024-01-25T03:21:44;12.10;75.10
20091;DHT22;10205;49.678;6.560;2024-01-25T03:24:12;12.00;75.00
20091;DHT22;10205;49.678;6.560;2024-01-25T03:26:39;12.10;76.00
20091;DHT22;10205;49.678;6.560;2024-01-25T03:29:06;12.00;75.10
20091;DHT22;10205;49.678;6.560;2024-01-25T03:31:35;12.00;75.20
20091;DHT22;10205;49.678;6.560;2024-01-25T03:34:03;12.00;75.30
20091;DHT22;10205;49.678;6.560;2024-01-25T03:36:30;12.00;75.30
20091;DHT22;10205;49.678;6.560;2024-01-25T03:38:58;12.00;75.30
20091;DHT22;10205;49.678;6.560;2024-01-25T03:41:25;11.90;75.30
20091;DHT22;10205;49.678;6.560;2024-01-25T03:43:54;11.90;75.30
20091;DHT22;10205;49.678;6.560;2024-01-25T03:46:21;11.90;75.30
20091;DHT22;10205;49.678;6.560;2024-01-25T03:48:50;11.80;75.30
20091;DHT22;10205;49.678;6.560;2024-01-25T03:51:17;11.90;75.30
20091;DHT22;10205;49.678;6.560;2024-01-25T03:53:45;11.80;75.30
20091;DHT22;10205;49.678;6.560;2024-01-25T03:56:12;11.80;75.30
20091;DHT22;10205;49.678;6.560;2024-01-25T03:58:42;11.80;75.30
20091;DHT22;10205;49.678;6.560;2024-01-25T04:01:10;11.80;75.30
20091;DHT22;10205;49.678;6.560;2024-01-25T04:03:37;11.80;75.30
20091;DHT22;10205;49.678;6.560;2024-01-25T04:06:05;11.70;75.30
20091;DHT22;10205;49.678;6.560;2024-01-25T04:08:32;11.70;75.30
20091;DHT22;10205;49.678;6.560;2024-01-25T04:11:00;11.70;75.30
20091;DHT22;10205;49.678;6.560;2024-01-25T04:13:27;11.60;75.20
20091;DHT22;10205;49.678;6.560;2024-01-25T04:15:54;11.60;75.20
20091;DHT22;10205;49.678;6.560;2024-01-25T04:18:21;11.60;75.20
20091;DHT22;10205;49.678;6.560;2024-01-25T04:20:48;11.60;75.20
20091;DHT22;10205;49.678;6.560;2024-01-25T04:23:17;11.60;75.20
20091;DHT22;10205;49.678;6.560;2024-01-25T04:25:44;11.50;75.20
20091;DHT22;10205;49.678;6.560;2024-01-25T04:28:12;11.50;75.20
20091;DHT22;10205;49.678;6.560;2024-01-25T04:30:39;11.50;75.30
20091;DHT22;10205;49.678;6.560;2024-01-25T04:33:06;11.40;75.20
20091;DHT22;10205;49.678;6.560;2024-01-25T04:35:34;11.40;75.20
20091;DHT22;10205;49.678;6.560;2024-01-25T04:38:01;11.40;75.30
20091;DHT22;10205;49.678;6.560;2024-01-25T04:40:29;11.40;75.30
20091;DHT22;10205;49.678;6.560;2024-01-25T04:42:56;11.40;75.30
20091;DHT22;10205;49.678;6.560;2024-01-25T04:45:24;11.30;75.20
20091;DHT22;10205;49.678;6.560;2024-01-25T04:47:51;11.30;75.30
20091;DHT22;10205;49.678;6.560;2024-01-25T04:50:18;11.30;75.30
20091;DHT22;10205;49.678;6.560;2024-01-25T04:52:45;11.20;75.40
20091;DHT22;10205;49.678;6.560;2024-01-25T04:55:12;11.20;75.50
20091;DHT22;10205;49.678;6.560;2024-01-25T04:57:41;11.20;75.50
20091;DHT22;10205;49.678;6.560;2024-01-25T05:00:10;11.10;75.50
20091;DHT22;10205;49.678;6.560;2024-01-25T05:02:37;11.10;76.30
20091;DHT22;10205;49.678;6.560;2024-01-25T05:05:05;11.10;75.50
20091;DHT22;10205;49.678;6.560;2024-01-25T05:07:32;11.10;75.50
20091;DHT22;10205;49.678;6.560;2024-01-25T05:09:59;11.10;75.50
20091;DHT22;10205;49.678;6.560;2024-01-25T05:12:26;11.10;75.50
20091;DHT22;10205;49.678;6.560;2024-01-25T05:14:54;11.10;75.50
20091;DHT22;10205;49.678;6.560;2024-01-25T05:17:21;11.00;75.50
20091;DHT22;10205;49.678;6.560;2024-01-25T05:19:48;11.00;75.50
20091;DHT22;10205;49.678;6.560;2024-01-25T05:22:16;11.00;75.50
20091;DHT22;10205;49.678;6.560;2024-01-25T05:24:43;11.00;75.50
20091;DHT22;10205;49.678;6.560;2024-01-25T05:27:12;10.90;75.40
20091;DHT22;10205;49.678;6.560;2024-01-25T05:29:39;10.90;75.50
20091;DHT22;10205;49.678;6.560;2024-01-25T05:32:07;10.90;75.60
20091;DHT22;10205;49.678;6.560;2024-01-25T05:34:35;10.90;75.70
20091;DHT22;10205;49.678;6.560;2024-01-25T05:37:02;10.90;75.70
20091;DHT22;10205;49.678;6.560;2024-01-25T05:39:29;10.90;75.70
20091;DHT22;10205;49.678;6.560;2024-01-25T05:41:56;10.80;75.70
20091;DHT22;10205;49.678;6.560;2024-01-25T05:44:23;10.80;75.80
20091;DHT22;10205;49.678;6.560;2024-01-25T05:46:50;10.80;75.70
20091;DHT22;10205;49.678;6.560;2024-01-25T05:49:18;10.80;75.80
20091;DHT22;10205;49.678;6.560;2024-01-25T05:51:45;10.70;76.60
20091;DHT22;10205;49.678;6.560;2024-01-25T05:54:13;10.70;75.70
20091;DHT22;10205;49.678;6.560;2024-01-25T05:56:40;10.70;75.70
20091;DHT22;10205;49.678;6.560;2024-01-25T05:59:07;10.70;75.70
20091;DHT22;10205;49.678;6.560;2024-01-25T06:01:34;10.70;75.80
20091;DHT22;10205;49.678;6.560;2024-01-25T06:04:01;10.70;75.80
20091;DHT22;10205;49.678;6.560;2024-01-25T06:06:29;10.60;75.70
20091;DHT22;10205;49.678;6.560;2024-01-25T06:08:57;10.60;75.70
20091;DHT22;10205;49.678;6.560;2024-01-25T06:11:24;10.60;75.70
20091;DHT22;10205;49.678;6.560;2024-01-25T06:13:54;10.60;75.80
20091;DHT22;10205;49.678;6.560;2024-01-25T06:16:21;10.60;75.90
20091;DHT22;10205;49.678;6.560;2024-01-25T06:18:48;10.60;75.90
20091;DHT22;10205;49.678;6.560;2024-01-25T06:21:15;10.50;75.80
20091;DHT22;10205;49.678;6.560;2024-01-25T06:23:44;10.50;75.80
20091;DHT22;10205;49.678;6.560;2024-01-25T06:26:11;10.50;75.90
20091;DHT22;10205;49.678;6.560;2024-01-25T06:28:38;10.50;75.90
20091;DHT22;10205;49.678;6.560;2024-01-25T06:31:06;10.50;75.90
20091;DHT22;10205;49.678;6.560;2024-01-25T06:33:33;10.40;75.80
20091;DHT22;10205;49.678;6.560;2024-01-25T06:36:00;10.40;76.70
20091;DHT22;10205;49.678;6.560;2024-01-25T06:38:28;10.40;75.90
20091;DHT22;10205;49.678;6.560;2024-01-25T06:40:56;10.40;75.90
20091;DHT22;10205;49.678;6.560;2024-01-25T06:43:24;10.40;75.90
20091;DHT22;10205;49.678;6.560;2024-01-25T06:45:51;10.30;75.80
20091;DHT22;10205;49.678;6.560;2024-01-25T06:48:18;10.30;75.80
20091;DHT22;10205;49.678;6.560;2024-01-25T06:50:45;10.30;75.80
20091;DHT22;10205;49.678;6.560;2024-01-25T06:53:12;10.30;75.80
20091;DHT22;10205;49.678;6.560;2024-01-25T06:55:40;10.20;75.90
20091;DHT22;10205;49.678;6.560;2024-01-25T06:58:09;10.20;75.90
20091;DHT22;10205;49.678;6.560;2024-01-25T07:00:36;10.20;75.90
20091;DHT22;10205;49.678;6.560;2024-01-25T07:03:04;10.20;75.90
20091;DHT22;10205;49.678;6.560;2024-01-25T07:05:31;10.20;75.90
20091;DHT22;10205;49.678;6.560;2024-01-25T07:08:01;10.20;75.90
20091;DHT22;10205;49.678;6.560;2024-01-25T07:10:28;10.10;75.70
20091;DHT22;10205;49.678;6.560;2024-01-25T07:12:55;10.10;75.40
20091;DHT22;10205;49.678;6.560;2024-01-25T07:15:23;10.10;75.20
20091;DHT22;10205;49.678;6.560;2024-01-25T07:17:50;10.00;75.10
20091;DHT22;10205;49.678;6.560;2024-01-25T07:20:17;10.00;75.20
20091;DHT22;10205;49.678;6.560;2024-01-25T07:22:44;9.90;75.00
20091;DHT22;10205;49.678;6.560;2024-01-25T07:25:12;9.90;75.10
20091;DHT22;10205;49.678;6.560;2024-01-25T07:27:39;9.80;75.30
20091;DHT22;10205;49.678;6.560;2024-01-25T07:30:08;9.80;75.30
20091;DHT22;10205;49.678;6.560;2024-01-25T07:32:37;9.80;75.40
20091;DHT22;10205;49.678;6.560;2024-01-25T07:35:07;9.80;75.40
20091;DHT22;10205;49.678;6.560;2024-01-25T07:37:35;9.70;75.40
20091;DHT22;10205;49.678;6.560;2024-01-25T07:40:02;9.70;75.50
20091;DHT22;10205;49.678;6.560;2024-01-25T07:42:30;9.70;75.70
20091;DHT22;10205;49.678;6.560;2024-01-25T07:44:57;9.70;75.70
20091;DHT22;10205;49.678;6.560;2024-01-25T07:47:24;9.60;75.70
20091;DHT22;10205;49.678;6.560;2024-01-25T07:49:53;9.60;75.70
20091;DHT22;10205;49.678;6.560;2024-01-25T07:52:20;9.60;75.80
20091;DHT22;10205;49.678;6.560;2024-01-25T07:54:47;9.60;75.90
20091;DHT22;10205;49.678;6.560;2024-01-25T07:57:15;9.60;75.90
20091;DHT22;10205;49.678;6.560;2024-01-25T07:59:42;9.50;75.80
20091;DHT22;10205;49.678;6.560;2024-01-25T08:02:09;9.50;75.70
20091;DHT22;10205;49.678;6.560;2024-01-25T08:04:36;9.50;75.70
20091;DHT22;10205;49.678;6.560;2024-01-25T08:07:05;9.50;75.70
20091;DHT22;10205;49.678;6.560;2024-01-25T08:09:32;9.40;75.70
20091;DHT22;10205;49.678;6.560;2024-01-25T08:11:59;9.40;75.70
20091;DHT22;10205;49.678;6.560;2024-01-25T08:14:26;9.40;75.70
20091;DHT22;10205;49.678;6.560;2024-01-25T08:16:53;9.40;75.90
20091;DHT22;10205;49.678;6.560;2024-01-25T08:19:21;9.40;76.00
20091;DHT22;10205;49.678;6.560;2024-01-25T08:21:48;9.40;76.00
20091;DHT22;10205;49.678;6.560;2024-01-25T08:24:17;9.30;76.00
20091;DHT22;10205;49.678;6.560;2024-01-25T08:26:44;9.30;76.10
20091;DHT22;10205;49.678;6.560;2024-01-25T08:29:11;9.30;76.10
20091;DHT22;10205;49.678;6.560;2024-01-25T08:31:38;9.30;76.20
20091;DHT22;10205;49.678;6.560;2024-01-25T08:34:05;9.30;76.30
20091;DHT22;10205;49.678;6.560;2024-01-25T08:36:32;9.30;76.30
20091;DHT22;10205;49.678;6.560;2024-01-25T08:38:59;9.30;76.40
20091;DHT22;10205;49.678;6.560;2024-01-25T08:41:28;9.30;76.40
20091;DHT22;10205;49.678;6.560;2024-01-25T08:43:55;9.20;76.30
20091;DHT22;10205;49.678;6.560;2024-01-25T08:46:22;9.20;76.30
20091;DHT22;10205;49.678;6.560;2024-01-25T08:48:49;9.20;76.30
20091;DHT22;10205;49.678;6.560;2024-01-25T08:51:16;9.20;76.40
20091;DHT22;10205;49.678;6.560;2024-01-25T08:53:44;9.20;76.40
20091;DHT22;10205;49.678;6.560;2024-01-25T08:56:11;9.20;76.50
20091;DHT22;10205;49.678;6.560;2024-01-25T08:58:39;9.20;76.60
20091;DHT22;10205;49.678;6.560;2024-01-25T09:01:06;9.20;76.60
20091;DHT22;10205;49.678;6.560;2024-01-25T09:03:33;9.20;76.70
20091;DHT22;10205;49.678;6.560;2024-01-25T09:06:01;9.20;76.70
20091;DHT22;10205;49.678;6.560;2024-01-25T09:08:31;9.20;76.80
20091;DHT22;10205;49.678;6.560;2024-01-25T09:10:58;9.20;76.90
20091;DHT22;10205;49.678;6.560;2024-01-25T09:13:25;9.20;76.90
20091;DHT22;10205;49.678;6.560;2024-01-25T09:15:54;9.20;76.90
20091;DHT22;10205;49.678;6.560;2024-01-25T09:18:21;9.20;76.90
20091;DHT22;10205;49.678;6.560;2024-01-25T09:20:48;9.20;76.90
20091;DHT22;10205;49.678;6.560;2024-01-25T09:23:15;9.30;77.30
20091;DHT22;10205;49.678;6.560;2024-01-25T09:25:42;9.30;77.10
20091;DHT22;10205;49.678;6.560;2024-01-25T09:28:10;9.30;77.30
20091;DHT22;10205;49.678;6.560;2024-01-25T09:30:38;9.30;77.20
20091;DHT22;10205;49.678;6.560;2024-01-25T09:33:07;9.30;77.30
20091;DHT22;10205;49.678;6.560;2024-01-25T09:35:36;9.40;77.40
20091;DHT22;10205;49.678;6.560;2024-01-25T09:38:06;9.40;77.40
20091;DHT22;10205;49.678;6.560;2024-01-25T09:40:33;9.40;77.40
20091;DHT22;10205;49.678;6.560;2024-01-25T09:43:01;9.40;77.50
20091;DHT22;10205;49.678;6.560;2024-01-25T09:45:31;9.40;77.60
20091;DHT22;10205;49.678;6.560;2024-01-25T09:47:58;9.40;77.60
20091;DHT22;10205;49.678;6.560;2024-01-25T09:50:27;9.50;77.70
20091;DHT22;10205;49.678;6.560;2024-01-25T09:52:59;9.50;77.70
20091;DHT22;10205;49.678;6.560;2024-01-25T09:55:27;9.60;77.80
20091;DHT22;10205;49.678;6.560;2024-01-25T09:57:54;9.60;78.60
20091;DHT22;10205;49.678;6.560;2024-01-25T10:00:22;9.60;77.80
20091;DHT22;10205;49.678;6.560;2024-01-25T10:02:50;9.60;77.90
20091;DHT22;10205;49.678;6.560;2024-01-25T10:05:18;9.70;78.00
20091;DHT22;10205;49.678;6.560;2024-01-25T10:07:46;9.70;78.00
20091;DHT22;10205;49.678;6.560;2024-01-25T10:10:16;9.80;78.00
20091;DHT22;10205;49.678;6.560;2024-01-25T10:12:43;9.80;78.00
20091;DHT22;10205;49.678;6.560;2024-01-25T10:15:11;9.90;78.20
20091;DHT22;10205;49.678;6.560;2024-01-25T10:17:39;9.90;78.20
20091;DHT22;10205;49.678;6.560;2024-01-25T10:20:07;10.00;78.30
20091;DHT22;10205;49.678;6.560;2024-01-25T10:22:37;10.00;78.20
20091;DHT22;10205;49.678;6.560;2024-01-25T10:25:12;10.00;78.20
20091;DHT22;10205;49.678;6.560;2024-01-25T10:27:40;10.10;78.40
20091;DHT22;10205;49.678;6.560;2024-01-25T10:30:10;10.10;78.20
20091;DHT22;10205;49.678;6.560;2024-01-25T10:32:40;10.20;78.30
20091;DHT22;10205;49.678;6.560;2024-01-25T10:35:09;10.20;78.30
20091;DHT22;10205;49.678;6.560;2024-01-25T10:37:39;10.30;78.30
20091;DHT22;10205;49.678;6.560;2024-01-25T10:40:10;10.30;78.40
20091;DHT22;10205;49.678;6.560;2024-01-25T10:42:39;10.30;78.30
20091;DHT22;10205;49.678;6.560;2024-01-25T10:45:07;10.40;78.20
20091;DHT22;10205;49.678;6.560;2024-01-25T10:47:35;10.40;78.20
20091;DHT22;10205;49.678;6.560;2024-01-25T10:50:04;10.50;78.20
20091;DHT22;10205;49.678;6.560;2024-01-25T10:52:34;10.60;78.20
20091;DHT22;10205;49.678;6.560;2024-01-25T10:55:03;10.60;78.10
20091;DHT22;10205;49.678;6.560;2024-01-25T10:57:36;10.70;78.20
20091;DHT22;10205;49.678;6.560;2024-01-25T11:00:06;10.70;78.10
20091;DHT22;10205;49.678;6.560;2024-01-25T11:02:37;10.80;78.10
20091;DHT22;10205;49.678;6.560;2024-01-25T11:05:08;10.80;78.00
20091;DHT22;10205;49.678;6.560;2024-01-25T11:07:43;10.90;78.00
20091;DHT22;10205;49.678;6.560;2024-01-25T11:10:15;10.90;77.90
20091;DHT22;10205;49.678;6.560;2024-01-25T11:12:50;11.00;78.00
20091;DHT22;10205;49.678;6.560;2024-01-25T11:15:20;11.00;77.90
20091;DHT22;10205;49.678;6.560;2024-01-25T11:17:52;11.10;77.80
20091;DHT22;10205;49.678;6.560;2024-01-25T11:20:21;11.10;77.80
20091;DHT22;10205;49.678;6.560;2024-01-25T11:22:57;11.20;77.70
20091;DHT22;10205;49.678;6.560;2024-01-25T11:25:29;11.30;77.60
20091;DHT22;10205;49.678;6.560;2024-01-25T11:27:59;11.30;77.70
20091;DHT22;10205;49.678;6.560;2024-01-25T11:30:29;11.40;78.00
20091;DHT22;10205;49.678;6.560;2024-01-25T11:32:57;11.40;78.00
20091;DHT22;10205;49.678;6.560;2024-01-25T11:35:24;11.40;77.80
20091;DHT22;10205;49.678;6.560;2024-01-25T11:37:52;11.50;77.70
20091;DHT22;10205;49.678;6.560;2024-01-25T11:40:20;11.50;77.50
20091;DHT22;10205;49.678;6.560;2024-01-25T11:42:48;11.60;77.40
20091;DHT22;10205;49.678;6.560;2024-01-25T11:45:18;11.60;77.20
20091;DHT22;10205;49.678;6.560;2024-01-25T11:47:45;11.70;77.20
20091;DHT22;10205;49.678;6.560;2024-01-25T11:50:13;11.70;77.10
20091;DHT22;10205;49.678;6.560;2024-01-25T11:52:40;11.80;77.00
20091;DHT22;10205;49.678;6.560;2024-01-25T11:55:09;11.80;76.90
20091;DHT22;10205;49.678;6.560;2024-01-25T11:57:38;11.80;76.90
20091;DHT22;10205;49.678;6.560;2024-01-25T12:00:08;11.90;76.70
20091;DHT22;10205;49.678;6.560;2024-01-25T12:02:38;11.90;76.70
20091;DHT22;10205;49.678;6.560;2024-01-25T12:05:06;11.90;76.60
20091;DHT22;10205;49.678;6.560;2024-01-25T12:07:36;12.00;76.60
20091;DHT22;10205;49.678;6.560;2024-01-25T12:10:06;12.00;76.60
20091;DHT22;10205;49.678;6.560;2024-01-25T12:12:36;12.00;76.50
20091;DHT22;10205;49.678;6.560;2024-01-25T12:15:06;12.00;76.50
20091;DHT22;10205;49.678;6.560;2024-01-25T12:17:34;12.10;76.50
20091;DHT22;10205;49.678;6.560;2024-01-25T12:20:07;12.00;76.50
20091;DHT22;10205;49.678;6.560;2024-01-25T12:22:37;12.10;76.50
20091;DHT22;10205;49.678;6.560;2024-01-25T12:25:07;12.10;76.50
20091;DHT22;10205;49.678;6.560;2024-01-25T12:27:35;12.10;76.50
20091;DHT22;10205;49.678;6.560;2024-01-25T12:30:03;12.20;77.30
20091;DHT22;10205;49.678;6.560;2024-01-25T12:32:31;12.20;76.50
20091;DHT22;10205;49.678;6.560;2024-01-25T12:35:00;12.20;76.50
20091;DHT22;10205;49.678;6.560;2024-01-25T12:37:28;12.20;76.60
20091;DHT22;10205;49.678;6.560;2024-01-25T12:39:56;12.30;76.70
20091;DHT22;10205;49.678;6.560;2024-01-25T12:42:23;12.30;76.80
20091;DHT22;10205;49.678;6.560;2024-01-25T12:44:52;12.30;76.80
20091;DHT22;10205;49.678;6.560;2024-01-25T12:47:20;12.30;76.90
20091;DHT22;10205;49.678;6.560;2024-01-25T12:49:47;12.30;76.90
20091;DHT22;10205;49.678;6.560;2024-01-25T12:52:15;12.40;77.00
20091;DHT22;10205;49.678;6.560;2024-01-25T12:54:44;12.40;76.90
20091;DHT22;10205;49.678;6.560;2024-01-25T12:57:11;12.40;77.00
20091;DHT22;10205;49.678;6.560;2024-01-25T12:59:38;12.40;77.10
20091;DHT22;10205;49.678;6.560;2024-01-25T13:02:07;12.40;77.80
20091;DHT22;10205;49.678;6.560;2024-01-25T13:04:34;12.50;77.00
20091;DHT22;10205;49.678;6.560;2024-01-25T13:07:01;12.50;77.00
20091;DHT22;10205;49.678;6.560;2024-01-25T13:09:29;12.50;76.90
20091;DHT22;10205;49.678;6.560;2024-01-25T13:12:00;12.50;76.90
20091;DHT22;10205;49.678;6.560;2024-01-25T13:14:27;12.60;76.90
20091;DHT22;10205;49.678;6.560;2024-01-25T13:16:55;12.60;76.90
20091;DHT22;10205;49.678;6.560;2024-01-25T13:19:25;12.60;76.90
20091;DHT22;10205;49.678;6.560;2024-01-25T13:21:53;12.60;76.90
20091;DHT22;10205;49.678;6.560;2024-01-25T13:24:20;12.60;76.80
20091;DHT22;10205;49.678;6.560;2024-01-25T13:26:47;12.60;76.70
20091;DHT22;10205;49.678;6.560;2024-01-25T13:29:16;12.70;76.70
20091;DHT22;10205;49.678;6.560;2024-01-25T13:31:43;12.70;76.70
20091;DHT22;10205;49.678;6.560;2024-01-25T13:34:10;12.70;76.70
20091;DHT22;10205;49.678;6.560;2024-01-25T13:36:37;12.70;76.70
20091;DHT22;10205;49.678;6.560;2024-01-25T13:39:05;12.70;76.70
20091;DHT22;10205;49.678;6.560;2024-01-25T13:41:32;12.70;76.80
20091;DHT22;10205;49.678;6.560;2024-01-25T13:43:59;12.70;76.70
20091;DHT22;10205;49.678;6.560;2024-01-25T13:46:28;12.80;76.80
20091;DHT22;10205;49.678;6.560;2024-01-25T13:48:55;12.80;76.70
20091;DHT22;10205;49.678;6.560;2024-01-25T13:51:22;12.80;76.70
20091;DHT22;10205;49.678;6.560;2024-01-25T13:53:50;12.80;76.60
20091;DHT22;10205;49.678;6.560;2024-01-25T13:56:17;12.90;76.80
20091;DHT22;10205;49.678;6.560;2024-01-25T13:58:44;12.80;76.70
20091;DHT22;10205;49.678;6.560;2024-01-25T14:01:11;12.90;76.80
20091;DHT22;10205;49.678;6.560;2024-01-25T14:03:40;12.90;76.80
20091;DHT22;10205;49.678;6.560;2024-01-25T14:06:07;12.90;76.70
20091;DHT22;10205;49.678;6.560;2024-01-25T14:08:38;12.90;76.80
20091;DHT22;10205;49.678;6.560;2024-01-25T14:11:05;12.90;76.90
20091;DHT22;10205;49.678;6.560;2024-01-25T14:13:33;12.90;76.80
20091;DHT22;10205;49.678;6.560;2024-01-25T14:16:00;12.90;76.90
20091;DHT22;10205;49.678;6.560;2024-01-25T14:18:28;13.00;76.80
20091;DHT22;10205;49.678;6.560;2024-01-25T14:20:56;13.00;76.80
20091;DHT22;10205;49.678;6.560;2024-01-25T14:23:23;13.00;76.80
20091;DHT22;10205;49.678;6.560;2024-01-25T14:25:51;13.00;76.80
20091;DHT22;10205;49.678;6.560;2024-01-25T14:28:18;13.00;76.70
20091;DHT22;10205;49.678;6.560;2024-01-25T14:30:45;13.00;76.70
20091;DHT22;10205;49.678;6.560;2024-01-25T14:33:13;13.00;76.70
20091;DHT22;10205;49.678;6.560;2024-01-25T14:35:40;13.00;76.70
20091;DHT22;10205;49.678;6.560;2024-01-25T14:38:09;13.00;76.70
20091;DHT22;10205;49.678;6.560;2024-01-25T14:40:36;13.00;76.80
20091;DHT22;10205;49.678;6.560;2024-01-25T14:43:03;13.00;76.70
20091;DHT22;10205;49.678;6.560;2024-01-25T14:45:32;13.00;76.70
20091;DHT22;10205;49.678;6.560;2024-01-25T14:48:01;13.00;76.70
20091;DHT22;10205;49.678;6.560;2024-01-25T14:50:29;13.10;76.70
20091;DHT22;10205;49.678;6.560;2024-01-25T14:52:56;13.10;77.60
20091;DHT22;10205;49.678;6.560;2024-01-25T14:55:25;13.10;76.80
20091;DHT22;10205;49.678;6.560;2024-01-25T14:57:52;13.10;76.80
20091;DHT22;10205;49.678;6.560;2024-01-25T15:00:20;13.10;76.80
20091;DHT22;10205;49.678;6.560;2024-01-25T15:02:47;13.10;76.80
20091;DHT22;10205;49.678;6.560;2024-01-25T15:05:15;13.10;76.80
20091;DHT22;10205;49.678;6.560;2024-01-25T15:07:42;13.10;77.70
20091;DHT22;10205;49.678;6.560;2024-01-25T15:10:09;13.10;76.90
20091;DHT22;10205;49.678;6.560;2024-01-25T15:12:38;13.10;76.90
20091;DHT22;10205;49.678;6.560;2024-01-25T15:15:07;13.10;76.80
20091;DHT22;10205;49.678;6.560;2024-01-25T15:17:35;13.10;76.80
20091;DHT22;10205;49.678;6.560;2024-01-25T15:20:02;13.10;76.90
20091;DHT22;10205;49.678;6.560;2024-01-25T15:22:31;13.10;76.90
20091;DHT22;10205;49.678;6.560;2024-01-25T15:24:58;13.10;76.80
20091;DHT22;10205;49.678;6.560;2024-01-25T15:27:25;13.10;76.90
20091;DHT22;10205;49.678;6.560;2024-01-25T15:29:53;13.10;77.70
20091;DHT22;10205;49.678;6.560;2024-01-25T15:32:21;13.20;77.00
20091;DHT22;10205;49.678;6.560;2024-01-25T15:34:48;13.10;77.70
20091;DHT22;10205;49.678;6.560;2024-01-25T15:37:15;13.10;76.90